DW3201 Weather Reports


Display with metric or nautical units.
time (UTC)temp
F
wind
direction
speed
MPH
gust
MPH
rain 1hr
in
rain 24hr
in
rain mn
in
humidity
%
barometer
mb
20200227232340 25 311 4.0 10.0 0.00 0.00 0.00 61 1017.3
20200227231339 26 301 5.0 8.0 0.00 0.00 0.00 60 1017.3
20200227230338 26 287 4.0 12.0 0.00 0.00 0.00 60 1017.3
20200227225336 26 297 5.0 15.0 0.00 0.00 0.00 60 1017.3
20200227224335 26 303 4.0 10.0 0.00 0.00 0.00 60 1016.9
20200227223335 27 299 4.0 13.0 0.00 0.00 0.00 59 1017.3
20200227222333 27 295 8.0 12.0 0.00 0.00 0.00 57 1016.9
20200227221333 28 303 4.0 13.0 0.00 0.00 0.00 59 1016.9
20200227220331 28 318 6.0 12.0 0.00 0.00 0.00 58 1016.9
20200227215330 28 302 2.0 10.0 0.00 0.00 0.00 58 1016.9
20200227214329 28 303 3.0 8.0 0.00 0.00 0.00 59 1016.9
20200227213328 29 298 10.0 13.0 0.00 0.00 0.00 57 1016.9
20200227212328 29 279 3.0 8.0 0.00 0.00 0.00 59 1016.9
20200227211327 29 304 6.0 11.0 0.00 0.00 0.00 59 1016.6
20200227210326 29 320 6.0 13.0 0.00 0.00 0.00 59 1016.6
20200227205325 28 303 5.0 9.0 0.00 0.00 0.00 59 1016.9
20200227204324 28 308 7.0 16.0 0.00 0.00 0.00 59 1016.6
20200227203323 28 321 5.0 12.0 0.00 0.00 0.00 62 1016.6
20200227202323 27 319 5.0 12.0 0.00 0.00 0.00 63 1016.9
20200227201322 27 307 4.0 11.0 0.00 0.00 0.00 64 1016.9
20200227200321 27 313 4.0 11.0 0.00 0.00 0.00 65 1016.9
20200227195320 26 296 5.0 14.0 0.00 0.00 0.00 66 1016.9
20200227194320 27 321 7.0 10.0 0.00 0.00 0.00 66 1016.9
20200227193319 27 316 3.0 9.0 0.00 0.00 0.00 67 1016.9
20200227192317 27 319 5.0 11.0 0.00 0.00 0.00 66 1016.9
20200227191317 27 301 4.0 10.0 0.00 0.00 0.00 66 1016.9
20200227190316 27 317 6.0 10.0 0.00 0.00 0.00 65 1016.9
20200227185315 27 331 7.0 11.0 0.00 0.00 0.00 64 1016.9
20200227184314 27 325 6.0 9.0 0.00 0.00 0.00 64 1016.9
20200227183313 27 299 3.0 10.0 0.00 0.00 0.00 63 1016.9
20200227182312 27 300 4.0 7.0 0.00 0.00 0.00 63 1016.9
20200227181311 27 312 5.0 12.0 0.00 0.00 0.00 64 1017.3
20200227180310 26 285 4.0 11.0 0.00 0.00 0.00 65 1017.6
20200227175309 26 285 2.0 11.0 0.00 0.00 0.00 67 1017.6
20200227174308 25 301 4.0 11.0 0.00 0.00 0.00 67 1017.6
20200227173307 25 298 4.0 12.0 0.00 0.00 0.00 68 1017.6
20200227172306 25 313 5.0 11.0 0.00 0.00 0.00 68 1017.6
20200227171305 26 282 6.0 13.0 0.00 0.00 0.00 68 1017.6
20200227170304 26 275 5.0 12.0 0.00 0.00 0.00 69 1017.9
20200227165303 25 291 5.0 9.0 0.00 0.00 0.00 71 1017.9
20200227164302 25 242 3.0 7.0 0.00 0.00 0.00 73 1017.9
20200227163301 25 310 4.0 10.0 0.00 0.00 0.00 74 1017.9
20200227162259 24 308 3.0 6.0 0.00 0.00 0.00 74 1017.9
20200227161258 24 287 3.0 8.0 0.00 0.00 0.00 75 1017.9
20200227160257 24 276 4.0 6.0 0.00 0.00 0.00 76 1018.3
20200227155256 23 311 4.0 6.0 0.00 0.00 0.00 76 1017.9
20200227154255 23 296 3.0 7.0 0.00 0.00 0.00 76 1018.3
20200227153253 24 327 3.0 5.0 0.00 0.00 0.00 75 1018.3
20200227152252 23 303 2.0 6.0 0.00 0.00 0.00 75 1018.3
20200227151251 23 331 2.0 5.0 0.00 0.00 0.00 75 1018.3
20200227150249 22 333 4.0 7.0 0.00 0.00 0.00 74 1018.3
20200227145249 22 336 4.0 6.0 0.00 0.00 0.00 74 1018.3
20200227144248 22 330 4.0 5.0 0.00 0.00 0.00 74 1018.3
20200227143247 22 330 2.0 3.0 0.00 0.00 0.00 74 1018.3
20200227142246 21 330 1.0 4.0 0.00 0.00 0.00 73 1018.3
20200227141245 21 330 3.0 4.0 0.00 0.00 0.00 72 1018.3
20200227140244 21 330 3.0 4.0 0.00 0.00 0.00 72 1018.3
20200227135243 21 330 3.0 5.0 0.00 0.00 0.00 71 1018.3
20200227134242 21 330 2.0 4.0 0.00 0.00 0.00 71 1018.3
20200227133241 21 330 2.0 4.0 0.00 0.00 0.00 71 1018.3
20200227132240 21 330 3.0 4.0 0.00 0.00 0.00 72 1018.3
20200227131239 21 330 2.0 4.0 0.00 0.00 0.00 72 1018.3
20200227130238 21 330 2.0 3.0 0.00 0.00 0.00 72 1018.3
20200227125237 21 330 2.0 3.0 0.00 0.00 0.00 73 1018.3
20200227124237 21 330 2.0 3.0 0.00 0.00 0.00 73 1018.3
20200227123235 21 330 2.0 5.0 0.00 0.00 0.00 74 1018.3
20200227122235 21 330 2.0 4.0 0.00 0.00 0.00 75 1018.3
20200227121234 22 330 2.0 5.0 0.00 0.00 0.00 75 1018.3
20200227120233 22 330 4.0 5.0 0.00 0.00 0.00 73 1018.3
20200227115231 22 330 3.0 4.0 0.00 0.00 0.00 73 1018.3
20200227114230 23 330 2.0 5.0 0.00 0.00 0.00 74 1017.9
20200227113229 23 330 0.0 0.0 0.00 0.00 0.00 74 1017.9
20200227112228 23 330 0.0 0.0 0.00 0.00 0.00 73 1017.9
20200227111227 23 330 0.0 4.0 0.00 0.00 0.00 73 1017.9
20200227110227 23 330 2.0 5.0 0.00 0.00 0.00 72 1017.9
20200227105226 24 330 4.0 6.0 0.00 0.00 0.00 73 1017.9
20200227104224 24 288 2.0 3.0 0.00 0.00 0.00 73 1017.9
20200227103224 24 288 2.0 3.0 0.00 0.00 0.00 73 1017.9
20200227102223 24 288 2.0 4.0 0.00 0.00 0.00 73 1017.6
20200227101222 24 286 2.0 4.0 0.00 0.00 0.00 73 1017.6
20200227100221 24 286 2.0 5.0 0.00 0.00 0.00 73 1017.6
20200227095220 24 281 2.0 4.0 0.00 0.00 0.00 72 1017.6
20200227094219 24 281 2.0 4.0 0.00 0.00 0.00 72 1017.9
20200227093218 24 281 2.0 7.0 0.00 0.00 0.00 72 1017.9
20200227092217 24 279 2.0 4.0 0.00 0.00 0.00 72 1017.9
20200227091216 24 279 2.0 5.0 0.00 0.00 0.00 72 1017.9
20200227090215 24 281 3.0 5.0 0.00 0.00 0.00 71 1017.9
20200227085214 24 295 2.0 4.0 0.00 0.00 0.00 71 1017.9
20200227084213 24 295 2.0 4.0 0.00 0.00 0.00 71 1018.3
20200227083212 24 295 2.0 3.0 0.00 0.00 0.00 71 1018.3
20200227082211 24 295 3.0 4.0 0.00 0.00 0.00 72 1018.3
20200227081210 24 295 2.0 2.0 0.00 0.00 0.00 72 1018.6
20200227080209 24 295 1.0 3.0 0.00 0.00 0.00 72 1018.6
20200227075208 24 295 1.0 3.0 0.00 0.00 0.00 72 1018.6
20200227074207 24 295 2.0 3.0 0.00 0.00 0.00 71 1018.6
20200227073207 24 295 2.0 3.0 0.00 0.00 0.00 70 1018.6
20200227072205 24 301 2.0 4.0 0.00 0.00 0.00 71 1018.6
20200227071204 24 301 1.0 2.0 0.00 0.00 0.00 70 1019.0
20200227070203 24 301 2.0 5.0 0.00 0.00 0.00 69 1019.0
20200227065202 24 301 2.0 3.0 0.00 0.00 0.00 70 1019.0
20200227064201 24 301 2.0 3.0 0.00 0.00 0.00 70 1019.0
20200227063200 24 300 2.0 3.0 0.00 0.00 0.00 70 1019.3
20200227062159 24 301 0.0 4.0 0.00 0.00 0.00 70 1019.3
20200227061158 24 301 2.0 4.0 0.00 0.00 0.00 70 1019.3
20200227060157 24 301 2.0 3.0 0.00 0.00 0.00 70 1019.3
20200227055156 24 300 3.0 5.0 0.00 0.00 0.00 70 1019.3
20200227054155 23 298 2.0 4.0 0.00 0.00 0.00 70 1019.3
20200227053154 23 300 2.0 4.0 0.00 0.00 0.00 70 1019.3
20200227052153 23 310 2.0 3.0 0.00 0.00 0.00 70 1019.3
20200227051152 23 310 2.0 4.0 0.00 0.00 0.00 69 1019.6
20200227050151 24 310 2.0 4.0 0.00 0.00 0.00 69 1019.6
20200227045151 24 310 2.0 3.0 0.00 0.00 0.00 68 1019.6
20200227044146 24 310 2.0 5.0 0.00 0.00 0.00 68 1019.6
20200227043145 24 309 2.0 5.0 0.00 0.00 0.00 67 1019.6
20200227042144 25 332 5.0 9.0 0.00 0.00 0.00 67 1019.6
20200227041143 25 329 5.0 9.0 0.00 0.00 0.00 67 1019.6
20200227040142 25 318 5.0 10.0 0.00 0.00 0.00 67 1019.6
20200227035141 25 319 3.0 10.0 0.00 0.00 0.00 68 1020.0
20200227034140 25 313 4.0 9.0 0.00 0.00 0.00 68 1020.0
20200227033139 25 306 3.0 6.0 0.00 0.00 0.00 68 1020.0
20200227032139 26 308 4.0 8.0 0.00 0.00 0.00 69 1020.0
20200227031137 26 317 4.0 11.0 0.00 0.00 0.00 70 1020.0
20200227030137 26 318 3.0 7.0 0.00 0.00 0.00 71 1020.0
20200227025136 26 320 3.0 6.0 0.00 0.00 0.00 72 1020.0
20200227024134 26 300 3.0 5.0 0.00 0.00 0.00 73 1020.0
20200227023134 26 304 3.0 5.0 0.00 0.00 0.00 74 1020.0
20200227022133 26 304 2.0 4.0 0.00 0.00 0.00 74 1020.0
20200227021131 26 304 1.0 4.0 0.00 0.00 0.00 74 1020.0
20200227020130 26 304 2.0 4.0 0.00 0.00 0.00 75 1020.0
20200227015129 26 304 0.0 3.0 0.00 0.00 0.00 75 1020.0
20200227014127 25 304 2.0 4.0 0.00 0.00 0.00 75 1020.0
20200227013126 25 304 2.0 4.0 0.00 0.00 0.00 76 1020.3
20200227012126 25 304 1.0 3.0 0.00 0.00 0.00 75 1020.3
20200227011125 25 304 3.0 4.0 0.00 0.00 0.00 75 1020.3
20200227010124 26 304 2.0 3.0 0.00 0.00 0.00 75 1020.3
20200227005123 26 304 2.0 4.0 0.00 0.00 0.00 75 1020.3
20200227004122 26 304 2.0 3.0 0.00 0.00 0.00 75 1020.3
20200227003121 26 304 2.0 5.0 0.00 0.00 0.00 74 1020.3
20200227002120 26 304 2.0 6.0 0.00 0.00 0.00 74 1020.3
20200227001119 26 312 4.0 5.0 0.00 0.00 0.00 74 1020.3
20200227000118 26 314 3.0 6.0 0.00 0.00 0.00 73 1020.3
20200226235117 26 317 3.0 6.0 0.00 0.00 0.00 73 1020.0
20200226234116 26 325 3.0 9.0 0.00 0.00 0.00 72 1020.0